Time;durP1;ratioP1;P1;durP2;ratioP2;P2;SDS_P1;SDS_P2;PMS_P1;PMS_P2;Temp;Humidity;BMP_temperature;BMP_pressure;BME280_temperature;BME280_humidity;BME280_pressure;Samples;Min_cycle;Max_cycle;Signal;HPM_P1;HPM_P2
2023/01/02 00:04:26;;;;;;;6.93;4.83;;;;;14.30;99052.00;;;;16608865;28;20669;-48
2023/01/02 00:12:30;;;;;;;6.03;5.50;;;;;14.00;99042.00;;;;16602484;28;20230;-49
2023/01/02 00:20:33;;;;;;;6.93;5.97;;;;;13.80;99031.00;;;;16599941;28;20218;-49
2023/01/02 00:28:38;;;;;;;9.00;7.10;;;;;13.80;99016.00;;;;16597905;28;20711;-49
2023/01/02 00:36:40;;;;;;;9.20;6.50;;;;;13.80;99015.00;;;;16643070;28;20218;-48
2023/01/02 00:44:44;;;;;;;6.87;5.47;;;;;14.30;98999.00;;;;16627336;28;20791;-49
2023/01/02 00:52:47;;;;;;;6.00;4.20;;;;;13.70;99006.00;;;;16619320;28;20249;-49
2023/01/02 01:00:52;;;;;;;5.40;4.70;;;;;13.50;99003.00;;;;16615695;28;20710;-49
2023/01/02 01:08:54;;;;;;;7.63;3.37;;;;;13.00;99022.00;;;;16622617;28;20233;-47
2023/01/02 01:16:58;;;;;;;5.60;4.77;;;;;12.90;99027.00;;;;16617320;28;20699;-47
2023/01/02 01:25:00;;;;;;;5.80;4.50;;;;;13.60;99017.00;;;;16617819;28;20226;-47
2023/01/02 01:33:04;;;;;;;7.03;6.40;;;;;12.60;99024.00;;;;16650942;28;20205;-47
2023/01/02 01:41:07;;;;;;;11.10;7.73;;;;;13.00;99034.00;;;;16652214;28;20699;-47
2023/01/02 01:49:14;;;;;;;12.53;8.23;;;;;12.90;99054.00;;;;16652173;28;20309;-48
2023/01/02 01:57:20;;;;;;;7.87;6.83;;;;;13.50;99056.00;;;;16649498;28;20224;-47
2023/01/02 02:05:26;;;;;;;9.03;6.70;;;;;13.60;99040.00;;;;16650739;28;20233;-46
2023/01/02 02:13:31;;;;;;;9.70;6.90;;;;;13.50;99029.00;;;;16645616;28;20290;-47
2023/01/02 02:21:49;;;;;;;8.67;6.57;;;;;13.70;99029.00;;;;16649952;28;20223;-47
2023/01/02 02:30:06;;;;;;;10.37;7.83;;;;;13.30;99027.00;;;;16649547;28;20305;-47
2023/01/02 02:38:14;;;;;;;8.50;6.57;;;;;13.70;99020.00;;;;16648129;28;20217;-47
2023/01/02 02:46:21;;;;;;;11.17;7.40;;;;;13.40;99005.00;;;;16643615;28;20233;-47
2023/01/02 02:54:27;;;;;;;10.80;8.50;;;;;13.20;98994.00;;;;16643700;28;20332;-47
2023/01/02 03:02:30;;;;;;;5.20;4.70;;;;;12.80;99004.00;;;;16647727;28;20198;-47
2023/01/02 03:10:40;;;;;;;6.70;5.27;;;;;12.70;98996.00;;;;16646944;28;20323;-47
2023/01/02 03:18:48;;;;;;;3.83;3.47;;;;;13.00;98985.00;;;;16646186;28;20713;-47
2023/01/02 03:26:55;;;;;;;6.07;3.93;;;;;12.80;98986.00;;;;16644538;28;20300;-47
2023/01/02 03:35:00;;;;;;;8.00;6.10;;;;;12.70;98981.00;;;;16643564;28;20213;-47
2023/01/02 03:43:09;;;;;;;5.17;4.00;;;;;13.00;98978.00;;;;16644683;28;20213;-48
2023/01/02 03:51:12;;;;;;;5.10;4.60;;;;;13.10;98979.00;;;;16643310;28;20316;-46
2023/01/02 03:59:20;;;;;;;5.27;4.70;;;;;13.60;98977.00;;;;16644605;28;20268;-48
2023/01/02 04:07:27;;;;;;;4.43;4.03;;;;;13.20;98989.00;;;;16646121;28;20221;-48
2023/01/02 04:15:33;;;;;;;6.73;5.57;;;;;13.70;98983.00;;;;16655706;28;20598;-48
2023/01/02 04:23:39;;;;;;;6.70;4.50;;;;;13.10;98988.00;;;;16656538;28;20230;-48
2023/01/02 04:31:45;;;;;;;8.13;4.43;;;;;13.00;98973.00;;;;16656516;28;20226;-48
2023/01/02 04:39:49;;;;;;;5.00;4.43;;;;;12.90;98966.00;;;;16655707;28;20671;-48
2023/01/02 04:47:51;;;;;;;4.93;2.67;;;;;12.80;98968.00;;;;16662105;22;20239;-49
2023/01/02 04:55:57;;;;;;;4.33;3.10;;;;;12.40;98968.00;;;;16587958;28;20208;-44
2023/01/02 05:03:59;;;;;;;4.13;3.60;;;;;12.90;98967.00;;;;16587264;28;20274;-46
2023/01/02 05:12:03;;;;;;;6.13;3.77;;;;;12.20;98976.00;;;;16586738;28;20349;-46
2023/01/02 05:20:08;;;;;;;6.80;5.03;;;;;12.40;98971.00;;;;16586357;28;20224;-46
2023/01/02 05:28:11;;;;;;;6.00;3.67;;;;;11.60;98988.00;;;;16590408;28;20230;-46
2023/01/02 05:36:14;;;;;;;6.87;5.43;;;;;11.70;98985.00;;;;16591107;28;20215;-46
2023/01/02 05:44:18;;;;;;;14.90;8.03;;;;;11.50;99002.00;;;;16585713;28;20231;-46
2023/01/02 05:52:20;;;;;;;7.03;5.70;;;;;12.10;98987.00;;;;16584547;28;20242;-46
2023/01/02 06:00:24;;;;;;;6.70;3.93;;;;;12.30;98986.00;;;;16584658;28;20712;-47
2023/01/02 06:08:28;;;;;;;3.67;3.10;;;;;12.80;98980.00;;;;16582230;28;20277;-46
2023/01/02 06:16:32;;;;;;;6.93;3.83;;;;;12.90;98994.00;;;;16583712;28;20202;-46
2023/01/02 06:24:34;;;;;;;5.10;3.87;;;;;12.80;99004.00;;;;16581185;28;20214;-47
2023/01/02 06:32:38;;;;;;;5.37;3.57;;;;;13.00;99005.00;;;;16579111;28;20230;-46
2023/01/02 06:40:41;;;;;;;8.20;4.77;;;;;12.80;99008.00;;;;16555054;28;20218;-47
2023/01/02 06:48:45;;;;;;;8.80;3.20;;;;;12.60;99020.00;;;;16578026;28;20661;-47
2023/01/02 06:56:47;;;;;;;6.30;4.73;;;;;12.20;99023.00;;;;16562688;28;20724;-46
2023/01/02 07:04:51;;;;;;;4.93;3.67;;;;;12.00;99032.00;;;;16571889;28;20797;-46
2023/01/02 07:12:53;;;;;;;5.67;4.50;;;;;12.10;99041.00;;;;16579952;28;20598;-46
2023/01/02 07:20:57;;;;;;;10.53;4.90;;;;;11.70;99053.00;;;;16579702;28;20715;-46
2023/01/02 07:29:00;;;;;;;6.20;4.90;;;;;12.00;99061.00;;;;16579506;28;20617;-46
2023/01/02 07:37:03;;;;;;;8.17;5.63;;;;;11.70;99080.00;;;;16569062;28;20794;-46
2023/01/02 07:45:07;;;;;;;7.27;5.90;;;;;12.10;99096.00;;;;16578233;28;20200;-46
2023/01/02 07:53:11;;;;;;;10.97;5.93;;;;;12.00;99105.00;;;;16589801;28;20225;-47
2023/01/02 08:01:13;;;;;;;9.87;6.67;;;;;11.70;99108.00;;;;16589897;28;20624;-47
2023/01/02 08:09:17;;;;;;;7.60;5.77;;;;;11.70;99101.00;;;;16591381;28;20736;-45
2023/01/02 08:17:20;;;;;;;7.60;6.30;;;;;11.80;99110.00;;;;16588465;28;20219;-47
2023/01/02 08:25:24;;;;;;;6.57;5.80;;;;;12.50;99119.00;;;;16552670;28;20192;-47
2023/01/02 08:33:26;;;;;;;9.27;6.33;;;;;13.10;99120.00;;;;16555854;28;20241;-46
2023/01/02 08:41:34;;;;;;;9.30;6.87;;;;;12.30;99130.00;;;;16574590;28;20215;-47
2023/01/02 08:49:36;;;;;;;8.73;7.17;;;;;12.20;99142.00;;;;16564455;28;20230;-47
2023/01/02 08:57:40;;;;;;;10.37;7.30;;;;;12.30;99121.00;;;;16581338;28;20598;-47
2023/01/02 09:05:43;;;;;;;14.10;7.30;;;;;12.90;99131.00;;;;16587127;28;20220;-47
2023/01/02 09:13:46;;;;;;;6.80;5.00;;;;;13.00;99147.00;;;;16549971;28;20238;-47
2023/01/02 09:21:49;;;;;;;9.87;7.00;;;;;13.00;99156.00;;;;16569410;28;20220;-47
2023/01/02 09:29:53;;;;;;;7.90;5.17;;;;;13.80;99158.00;;;;16566185;28;20238;-47
2023/01/02 09:37:55;;;;;;;9.10;5.50;;;;;14.40;99165.00;;;;16532176;28;20807;-47
2023/01/02 09:46:00;;;;;;;11.87;6.87;;;;;14.50;99176.00;;;;16527273;28;20206;-47
2023/01/02 09:54:03;;;;;;;6.37;5.77;;;;;15.10;99175.00;;;;16539385;28;20222;-47
2023/01/02 10:02:20;;;;;;;7.47;4.80;;;;;15.40;99178.00;;;;16551981;28;20230;-47
2023/01/02 10:10:27;;;;;;;10.23;4.80;;;;;15.40;99188.00;;;;16564288;28;20689;-47
2023/01/02 10:18:35;;;;;;;7.23;5.70;;;;;16.40;99191.00;;;;16568978;28;20277;-48
2023/01/02 10:26:39;;;;;;;6.90;4.57;;;;;16.70;99180.00;;;;16592420;28;20710;-47
2023/01/02 10:34:48;;;;;;;5.67;5.07;;;;;16.70;99186.00;;;;16576891;28;20350;-48
2023/01/02 10:42:53;;;;;;;7.00;4.10;;;;;17.20;99180.00;;;;16575801;28;20612;-47
2023/01/02 10:51:00;;;;;;;4.63;3.77;;;;;17.80;99174.00;;;;16580240;28;20227;-48
2023/01/02 10:59:03;;;;;;;4.43;2.83;;;;;18.70;99163.00;;;;16578388;28;20222;-47
2023/01/02 11:07:12;;;;;;;8.00;5.20;;;;;19.80;99163.00;;;;16545693;28;20219;-48
2023/01/02 11:15:17;;;;;;;9.70;6.00;;;;;19.70;99158.00;;;;16563633;28;20192;-47
2023/01/02 11:23:24;;;;;;;14.50;7.60;;;;;20.40;99168.00;;;;16548050;28;20229;-48
2023/01/02 11:31:28;;;;;;;12.30;7.00;;;;;21.00;99157.00;;;;16576749;28;20723;-48
2023/01/02 11:39:33;;;;;;;7.97;3.93;;;;;20.00;99174.00;;;;16566058;28;20229;-47
2023/01/02 11:47:39;;;;;;;5.90;2.93;;;;;19.80;99167.00;;;;16554138;28;20227;-48
2023/01/02 11:55:46;;;;;;;6.37;2.90;;;;;20.50;99161.00;;;;16561629;28;20201;-47
2023/01/02 12:03:49;;;;;;;10.53;6.50;;;;;19.80;99174.00;;;;16577956;28;20223;-47
2023/01/02 12:12:03;;;;;;;6.63;4.63;;;;;19.20;99186.00;;;;16575931;28;20255;-47
2023/01/02 12:20:26;;;;;;;5.37;3.77;;;;;19.30;99182.00;;;;16570659;28;20727;-48
2023/01/02 12:28:53;;;;;;;7.00;3.23;;;;;19.50;99186.00;;;;16580991;28;20226;-48
2023/01/02 12:37:10;;;;;;;11.13;4.53;;;;;19.60;99158.00;;;;16575186;28;20219;-48
2023/01/02 12:45:19;;;;;;;7.10;3.53;;;;;20.00;99169.00;;;;16562630;28;20211;-47
2023/01/02 12:53:32;;;;;;;7.73;4.00;;;;;20.00;99164.00;;;;16582807;28;20237;-48
2023/01/02 13:01:39;;;;;;;8.33;4.00;;;;;20.20;99183.00;;;;16574971;28;20227;-47
2023/01/02 13:09:43;;;;;;;8.20;3.83;;;;;20.20;99172.00;;;;16581301;28;20601;-48
2023/01/02 13:17:57;;;;;;;8.47;3.93;;;;;20.60;99190.00;;;;16572720;28;20329;-47
2023/01/02 13:26:02;;;;;;;5.80;3.40;;;;;20.70;99193.00;;;;16585664;28;20208;-48
2023/01/02 13:34:09;;;;;;;7.77;3.37;;;;;20.40;99198.00;;;;16585821;28;20238;-48
2023/01/02 13:50:45;;;;;;;13.50;4.53;;;;;19.40;99220.00;;;;16562769;28;20231;-48
2023/01/02 13:58:52;;;;;;;9.27;2.97;;;;;19.30;99216.00;;;;16547773;28;20258;-47
2023/01/02 14:06:58;;;;;;;6.73;3.80;;;;;20.20;99221.00;;;;16545588;28;20200;-48
2023/01/02 14:15:01;;;;;;;11.23;4.70;;;;;19.20;99247.00;;;;16539508;28;20253;-47
2023/01/02 14:23:08;;;;;;;12.70;3.30;;;;;19.10;99263.00;;;;16539333;28;20658;-47
2023/01/02 14:31:17;;;;;;;11.00;4.30;;;;;19.80;99277.00;;;;16541099;28;20289;-47
2023/01/02 14:39:25;;;;;;;7.57;5.43;;;;;19.30;99287.00;;;;16534957;28;20716;-47
2023/01/02 14:47:35;;;;;;;6.47;4.00;;;;;19.60;99307.00;;;;16577329;28;20649;-48
2023/01/02 14:55:40;;;;;;;8.03;4.73;;;;;19.20;99317.00;;;;16573972;28;20197;-46
2023/01/02 15:03:48;;;;;;;8.40;3.07;;;;;18.30;99339.00;;;;16555204;28;20222;-46
2023/01/02 15:20:19;;;;;;;5.60;3.57;;;;;18.20;99357.00;;;;16545945;28;20285;-46
2023/01/02 15:28:28;;;;;;;7.47;3.43;;;;;17.70;99377.00;;;;16531593;28;20231;-46
2023/01/02 15:36:34;;;;;;;11.60;4.80;;;;;17.80;99391.00;;;;16559005;28;20203;-48
2023/01/02 15:53:01;;;;;;;5.87;3.20;;;;;17.40;99421.00;;;;16576614;28;20250;-49
2023/01/02 16:01:19;;;;;;;8.83;4.13;;;;;17.20;99429.00;;;;16578291;28;20239;-48
2023/01/02 16:09:25;;;;;;;7.90;3.20;;;;;17.10;99444.00;;;;16588848;28;20215;-46
2023/01/02 16:17:30;;;;;;;9.93;4.00;;;;;16.70;99459.00;;;;16589508;28;20242;-47
2023/01/02 16:25:34;;;;;;;4.33;2.90;;;;;16.80;99469.00;;;;16587743;28;20205;-46
2023/01/02 16:33:37;;;;;;;8.27;3.33;;;;;16.70;99469.00;;;;16587257;28;20770;-48
2023/01/02 16:50:23;;;;;;;8.13;3.20;;;;;16.40;99492.00;;;;16586041;28;20367;-48
2023/01/02 16:58:25;;;;;;;6.27;3.47;;;;;16.10;99515.00;;;;16572694;28;20215;-48
2023/01/02 17:06:30;;;;;;;7.13;2.80;;;;;16.20;99517.00;;;;16582724;28;20206;-47
2023/01/02 17:14:33;;;;;;;8.03;3.70;;;;;16.10;99525.00;;;;16576461;28;20682;-48
2023/01/02 17:22:37;;;;;;;6.23;3.53;;;;;16.30;99545.00;;;;16573661;28;20665;-48
2023/01/02 17:30:41;;;;;;;9.47;3.50;;;;;16.30;99571.00;;;;16580401;28;20847;-48
2023/01/02 17:38:45;;;;;;;6.60;4.87;;;;;16.20;99586.00;;;;16580327;28;20732;-48
2023/01/02 17:46:47;;;;;;;7.20;3.60;;;;;15.90;99595.00;;;;16561412;28;20798;-48
2023/01/02 17:54:51;;;;;;;6.87;4.20;;;;;15.90;99602.00;;;;16580891;28;20311;-48
2023/01/02 18:02:55;;;;;;;17.90;5.13;;;;;15.80;99600.00;;;;16560138;28;20247;-48
2023/01/02 18:10:59;;;;;;;8.07;3.40;;;;;15.50;99608.00;;;;16560026;28;20227;-48
2023/01/02 18:19:03;;;;;;;6.53;3.50;;;;;15.60;99617.00;;;;16554686;28;20219;-48
2023/01/02 18:27:19;;;;;;;6.23;4.03;;;;;15.60;99622.00;;;;16557150;28;20700;-48
2023/01/02 18:35:23;;;;;;;7.63;3.73;;;;;15.50;99636.00;;;;16546618;28;20251;-48
2023/01/02 18:43:31;;;;;;;7.90;3.60;;;;;15.30;99659.00;;;;16547355;28;20222;-48
2023/01/02 18:51:34;;;;;;;2.63;2.30;;;;;14.90;99687.00;;;;16555051;28;20227;-48
2023/01/02 18:59:39;;;;;;;2.53;1.70;;;;;14.80;99694.00;;;;16550553;28;20211;-48
2023/01/02 19:07:41;;;;;;;1.93;1.20;;;;;14.40;99692.00;;;;16564790;28;20219;-48
2023/01/02 19:15:46;;;;;;;0.93;0.93;;;;;14.20;99705.00;;;;16549926;28;20245;-48
2023/01/02 19:23:52;;;;;;;1.60;1.37;;;;;14.10;99720.00;;;;16569713;28;20227;-48
2023/01/02 19:32:01;;;;;;;1.03;0.97;;;;;14.10;99729.00;;;;16568102;28;20221;-48
2023/01/02 19:40:08;;;;;;;0.63;0.63;;;;;14.00;99738.00;;;;16569923;28;20317;-48
2023/01/02 19:48:11;;;;;;;5.30;3.70;;;;;13.80;99753.00;;;;16569152;28;20234;-48
2023/01/02 19:56:14;;;;;;;3.23;2.30;;;;;13.80;99770.00;;;;16566185;28;20211;-48
2023/01/02 20:04:18;;;;;;;1.60;1.50;;;;;13.50;99785.00;;;;16558374;28;20226;-48
2023/01/02 20:12:34;;;;;;;1.20;1.10;;;;;13.30;99788.00;;;;16546110;28;20218;-48
2023/01/02 20:20:38;;;;;;;4.83;4.43;;;;;13.40;99792.00;;;;16563037;28;20227;-48
2023/01/02 20:28:40;;;;;;;1.03;0.93;;;;;13.30;99818.00;;;;16573350;28;20358;-52
2023/01/02 20:36:44;;;;;;;1.97;0.90;;;;;13.60;99823.00;;;;16569258;28;20217;-48
2023/01/02 20:44:47;;;;;;;1.47;1.37;;;;;13.50;99826.00;;;;16570616;28;20210;-48
2023/01/02 20:52:50;;;;;;;1.67;1.13;;;;;13.30;99837.00;;;;16578627;28;20237;-48
2023/01/02 21:00:53;;;;;;;1.27;0.90;;;;;13.40;99847.00;;;;16586345;28;20286;-48
2023/01/02 21:08:57;;;;;;;1.33;1.20;;;;;13.30;99861.00;;;;16585123;28;20711;-48
2023/01/02 21:16:59;;;;;;;1.93;1.43;;;;;13.00;99881.00;;;;16580290;28;20761;-48
2023/01/02 21:25:03;;;;;;;1.40;1.23;;;;;12.90;99900.00;;;;16584200;28;20314;-48
2023/01/02 21:33:05;;;;;;;1.70;1.60;;;;;13.00;99906.00;;;;16576650;28;20298;-48
2023/01/02 21:49:29;;;;;;;1.70;1.53;;;;;13.00;99912.00;;;;16542937;28;20235;-48
2023/01/02 21:57:33;;;;;;;1.37;1.27;;;;;13.10;99931.00;;;;16574613;28;20227;-48
2023/01/02 22:05:36;;;;;;;1.53;1.43;;;;;13.10;99911.00;;;;16556892;28;20576;-48
2023/01/02 22:13:39;;;;;;;2.30;2.10;;;;;13.00;99928.00;;;;16544610;28;20221;-48
2023/01/02 22:21:43;;;;;;;2.00;1.30;;;;;13.00;99958.00;;;;16542119;28;20230;-48
2023/01/02 22:29:48;;;;;;;1.50;1.40;;;;;13.10;99946.00;;;;16551215;28;20273;-48
2023/01/02 22:37:51;;;;;;;1.60;1.40;;;;;12.90;99971.00;;;;16579350;28;20219;-48
2023/01/02 22:45:55;;;;;;;1.50;1.40;;;;;13.00;99964.00;;;;16583116;28;20276;-48
2023/01/02 22:53:57;;;;;;;3.27;1.60;;;;;13.20;99981.00;;;;16580707;28;20234;-48
2023/01/02 23:02:01;;;;;;;1.70;1.50;;;;;13.60;99989.00;;;;16579061;28;20228;-48
2023/01/02 23:10:04;;;;;;;2.17;1.37;;;;;14.00;99951.00;;;;16579397;28;20222;-48
2023/01/02 23:26:30;;;;;;;1.20;1.10;;;;;13.60;99976.00;;;;16580923;28;20317;-48
2023/01/02 23:34:34;;;;;;;1.57;1.47;;;;;13.30;99968.00;;;;16579183;28;20751;-48
2023/01/02 23:42:37;;;;;;;2.80;1.90;;;;;12.60;100000.00;;;;16576969;28;20871;-48
2023/01/02 23:50:44;;;;;;;1.20;1.10;;;;;12.20;99995.00;;;;16578447;28;20246;-48
2023/01/02 23:58:48;;;;;;;1.50;1.40;;;;;12.20;100001.00;;;;16579009;28;20627;-48
